sensor_id;sensor_type;location;lat;lon;timestamp;pressure;altitude;pressure_sealevel;temperature;humidity
80620;BME280;69979;53.682;-2.690;2024-01-10T00:01:35;103152.98;;;-0.89;59.67
80620;BME280;69979;53.682;-2.690;2024-01-10T00:04:01;103145.79;;;-0.67;59.62
80620;BME280;69979;53.682;-2.690;2024-01-10T00:06:26;103158.86;;;-1.15;60.77
80620;BME280;69979;53.682;-2.690;2024-01-10T00:08:52;103159.93;;;-0.98;62.01
80620;BME280;69979;53.682;-2.690;2024-01-10T00:11:17;103155.36;;;-1.03;61.22
80620;BME280;69979;53.682;-2.690;2024-01-10T00:13:42;103154.45;;;-1.10;61.11
80620;BME280;69979;53.682;-2.690;2024-01-10T00:16:07;103160.91;;;-0.89;60.28
80620;BME280;69979;53.682;-2.690;2024-01-10T00:18:33;103162.94;;;-0.90;60.91
80620;BME280;69979;53.682;-2.690;2024-01-10T00:20:58;103160.03;;;-0.88;62.00
80620;BME280;69979;53.682;-2.690;2024-01-10T00:23:22;103159.61;;;-0.72;60.51
80620;BME280;69979;53.682;-2.690;2024-01-10T00:25:47;103150.84;;;-0.67;59.25
80620;BME280;69979;53.682;-2.690;2024-01-10T00:28:12;103154.46;;;-0.31;60.48
80620;BME280;69979;53.682;-2.690;2024-01-10T00:30:38;103149.60;;;-0.18;59.12
80620;BME280;69979;53.682;-2.690;2024-01-10T00:33:04;103154.33;;;-0.71;60.18
80620;BME280;69979;53.682;-2.690;2024-01-10T00:35:30;103147.93;;;-0.31;59.37
80620;BME280;69979;53.682;-2.690;2024-01-10T00:37:56;103146.76;;;0.70;55.69
80620;BME280;69979;53.682;-2.690;2024-01-10T00:40:22;103149.23;;;0.49;55.33
80620;BME280;69979;53.682;-2.690;2024-01-10T00:42:47;103146.29;;;1.72;53.11
80620;BME280;69979;53.682;-2.690;2024-01-10T00:45:13;103145.46;;;1.18;53.89
80620;BME280;69979;53.682;-2.690;2024-01-10T00:47:39;103141.28;;;1.68;52.91
80620;BME280;69979;53.682;-2.690;2024-01-10T00:50:05;103140.07;;;1.85;51.75
80620;BME280;69979;53.682;-2.690;2024-01-10T00:52:30;103145.84;;;2.32;51.05
80620;BME280;69979;53.682;-2.690;2024-01-10T00:54:56;103145.84;;;2.52;49.88
80620;BME280;69979;53.682;-2.690;2024-01-10T00:57:22;103143.63;;;3.29;48.49
80620;BME280;69979;53.682;-2.690;2024-01-10T00:59:48;103143.20;;;3.21;48.74
80620;BME280;69979;53.682;-2.690;2024-01-10T01:02:14;103142.27;;;2.00;50.80
80620;BME280;69979;53.682;-2.690;2024-01-10T01:04:40;103144.33;;;2.63;50.44
80620;BME280;69979;53.682;-2.690;2024-01-10T01:07:06;103139.96;;;3.50;48.43
80620;BME280;69979;53.682;-2.690;2024-01-10T01:09:31;103139.81;;;4.35;46.70
80620;BME280;69979;53.682;-2.690;2024-01-10T01:11:57;103143.72;;;4.26;46.21
80620;BME280;69979;53.682;-2.690;2024-01-10T01:14:23;103134.28;;;3.61;47.74
80620;BME280;69979;53.682;-2.690;2024-01-10T01:16:49;103140.01;;;3.94;47.20
80620;BME280;69979;53.682;-2.690;2024-01-10T01:19:14;103141.05;;;4.04;46.24
80620;BME280;69979;53.682;-2.690;2024-01-10T01:21:40;103145.94;;;4.08;45.93
80620;BME280;69979;53.682;-2.690;2024-01-10T01:24:06;103142.11;;;3.93;47.39
80620;BME280;69979;53.682;-2.690;2024-01-10T01:26:32;103141.73;;;4.12;47.47
80620;BME280;69979;53.682;-2.690;2024-01-10T01:28:58;103135.97;;;4.15;47.45
80620;BME280;69979;53.682;-2.690;2024-01-10T01:31:23;103135.37;;;3.93;48.41
80620;BME280;69979;53.682;-2.690;2024-01-10T01:33:49;103137.02;;;4.21;48.25
80620;BME280;69979;53.682;-2.690;2024-01-10T01:36:15;103130.88;;;4.22;47.44
80620;BME280;69979;53.682;-2.690;2024-01-10T01:38:41;103127.78;;;4.88;46.65
80620;BME280;69979;53.682;-2.690;2024-01-10T01:41:07;103129.42;;;4.54;46.28
80620;BME280;69979;53.682;-2.690;2024-01-10T01:43:32;103125.67;;;4.86;45.55
80620;BME280;69979;53.682;-2.690;2024-01-10T01:45:58;103126.60;;;4.99;45.83
80620;BME280;69979;53.682;-2.690;2024-01-10T01:48:24;103123.80;;;3.68;47.64
80620;BME280;69979;53.682;-2.690;2024-01-10T01:50:53;103122.13;;;4.59;46.10
80620;BME280;69979;53.682;-2.690;2024-01-10T01:53:16;103123.22;;;5.11;44.80
80620;BME280;69979;53.682;-2.690;2024-01-10T01:55:42;103119.21;;;5.56;44.15
80620;BME280;69979;53.682;-2.690;2024-01-10T01:58:07;103120.23;;;6.05;43.45
80620;BME280;69979;53.682;-2.690;2024-01-10T02:00:33;103129.35;;;6.15;42.93
80620;BME280;69979;53.682;-2.690;2024-01-10T02:02:59;103125.48;;;5.86;43.55
80620;BME280;69979;53.682;-2.690;2024-01-10T02:05:25;103121.83;;;5.98;44.10
80620;BME280;69979;53.682;-2.690;2024-01-10T02:07:51;103122.75;;;5.70;44.38
80620;BME280;69979;53.682;-2.690;2024-01-10T02:10:16;103122.64;;;5.80;44.78
80620;BME280;69979;53.682;-2.690;2024-01-10T02:12:42;103126.29;;;5.92;44.92
80620;BME280;69979;53.682;-2.690;2024-01-10T02:15:08;103126.74;;;5.72;44.71
80620;BME280;69979;53.682;-2.690;2024-01-10T02:17:33;103135.17;;;5.42;45.80
80620;BME280;69979;53.682;-2.690;2024-01-10T02:20:08;103132.18;;;5.51;45.79
80620;BME280;69979;53.682;-2.690;2024-01-10T02:22:25;103133.52;;;5.97;45.31
80620;BME280;69979;53.682;-2.690;2024-01-10T02:24:54;103138.81;;;5.64;45.95
80620;BME280;69979;53.682;-2.690;2024-01-10T02:27:16;103137.77;;;5.27;46.88
80620;BME280;69979;53.682;-2.690;2024-01-10T02:29:42;103136.83;;;5.51;46.62
80620;BME280;69979;53.682;-2.690;2024-01-10T02:32:08;103136.38;;;5.33;47.03
80620;BME280;69979;53.682;-2.690;2024-01-10T02:34:34;103140.62;;;4.90;48.19
80620;BME280;69979;53.682;-2.690;2024-01-10T02:36:59;103138.16;;;5.05;47.94
80620;BME280;69979;53.682;-2.690;2024-01-10T02:39:25;103138.91;;;4.99;49.46
80620;BME280;69979;53.682;-2.690;2024-01-10T02:41:51;103140.82;;;5.25;49.48
80620;BME280;69979;53.682;-2.690;2024-01-10T02:44:16;103138.84;;;4.59;50.47
80620;BME280;69979;53.682;-2.690;2024-01-10T02:46:42;103142.88;;;5.03;50.54
80620;BME280;69979;53.682;-2.690;2024-01-10T02:49:08;103141.04;;;4.60;50.91
80620;BME280;69979;53.682;-2.690;2024-01-10T02:51:34;103144.86;;;4.95;50.23
80620;BME280;69979;53.682;-2.690;2024-01-10T02:54:00;103138.58;;;5.07;49.64
80620;BME280;69979;53.682;-2.690;2024-01-10T02:56:25;103137.83;;;4.22;51.16
80620;BME280;69979;53.682;-2.690;2024-01-10T02:58:51;103137.64;;;4.08;52.66
80620;BME280;69979;53.682;-2.690;2024-01-10T03:01:17;103138.05;;;4.55;51.34
80620;BME280;69979;53.682;-2.690;2024-01-10T03:03:43;103136.45;;;4.65;51.86
80620;BME280;69979;53.682;-2.690;2024-01-10T03:06:08;103138.00;;;4.65;51.91
80620;BME280;69979;53.682;-2.690;2024-01-10T03:08:34;103140.85;;;3.89;52.34
80620;BME280;69979;53.682;-2.690;2024-01-10T03:11:00;103138.20;;;4.59;52.18
80620;BME280;69979;53.682;-2.690;2024-01-10T03:13:26;103130.40;;;4.42;51.89
80620;BME280;69979;53.682;-2.690;2024-01-10T03:15:52;103124.60;;;4.41;52.40
80620;BME280;69979;53.682;-2.690;2024-01-10T03:18:17;103126.49;;;3.10;55.01
80620;BME280;69979;53.682;-2.690;2024-01-10T03:20:43;103121.79;;;3.97;53.64
80620;BME280;69979;53.682;-2.690;2024-01-10T03:23:09;103123.49;;;3.40;55.56
80620;BME280;69979;53.682;-2.690;2024-01-10T03:25:35;103118.78;;;3.59;54.78
80620;BME280;69979;53.682;-2.690;2024-01-10T03:28:00;103120.88;;;3.55;55.51
80620;BME280;69979;53.682;-2.690;2024-01-10T03:30:27;103115.82;;;4.13;54.69
80620;BME280;69979;53.682;-2.690;2024-01-10T03:32:52;103117.59;;;4.10;53.59
80620;BME280;69979;53.682;-2.690;2024-01-10T03:35:18;103121.91;;;4.37;53.25
80620;BME280;69979;53.682;-2.690;2024-01-10T03:37:44;103120.34;;;3.70;55.29
80620;BME280;69979;53.682;-2.690;2024-01-10T03:40:11;103112.84;;;3.56;55.11
80620;BME280;69979;53.682;-2.690;2024-01-10T03:42:35;103112.74;;;3.32;56.12
80620;BME280;69979;53.682;-2.690;2024-01-10T03:45:01;103118.23;;;3.75;55.66
80620;BME280;69979;53.682;-2.690;2024-01-10T03:47:27;103112.55;;;3.91;54.54
80620;BME280;69979;53.682;-2.690;2024-01-10T03:49:52;103107.86;;;3.33;56.01
80620;BME280;69979;53.682;-2.690;2024-01-10T03:52:18;103109.84;;;3.49;56.48
80620;BME280;69979;53.682;-2.690;2024-01-10T03:54:44;103105.63;;;3.44;57.47
80620;BME280;69979;53.682;-2.690;2024-01-10T03:57:10;103107.67;;;3.19;57.43
80620;BME280;69979;53.682;-2.690;2024-01-10T03:59:36;103109.25;;;3.23;57.72
80620;BME280;69979;53.682;-2.690;2024-01-10T04:02:02;103105.18;;;3.11;58.06
80620;BME280;69979;53.682;-2.690;2024-01-10T04:04:27;103103.73;;;2.91;58.60
80620;BME280;69979;53.682;-2.690;2024-01-10T04:06:53;103088.28;;;3.55;57.35
80620;BME280;69979;53.682;-2.690;2024-01-10T04:09:19;103092.57;;;3.23;57.12
80620;BME280;69979;53.682;-2.690;2024-01-10T04:11:45;103094.01;;;2.75;58.75
80620;BME280;69979;53.682;-2.690;2024-01-10T04:14:10;103092.36;;;2.25;60.01
80620;BME280;69979;53.682;-2.690;2024-01-10T04:16:36;103090.14;;;2.77;59.54
80620;BME280;69979;53.682;-2.690;2024-01-10T04:19:02;103082.41;;;3.01;58.98
80620;BME280;69979;53.682;-2.690;2024-01-10T04:21:28;103077.71;;;3.49;58.34
80620;BME280;69979;53.682;-2.690;2024-01-10T04:23:54;103081.79;;;2.79;58.48
80620;BME280;69979;53.682;-2.690;2024-01-10T04:26:19;103076.72;;;3.03;59.39
80620;BME280;69979;53.682;-2.690;2024-01-10T04:28:45;103079.14;;;2.92;59.62
80620;BME280;69979;53.682;-2.690;2024-01-10T04:31:11;103080.27;;;2.90;59.56
80620;BME280;69979;53.682;-2.690;2024-01-10T04:33:37;103081.30;;;3.69;57.99
80620;BME280;69979;53.682;-2.690;2024-01-10T04:36:03;103082.16;;;3.20;57.99
80620;BME280;69979;53.682;-2.690;2024-01-10T04:38:28;103083.04;;;3.67;58.11
80620;BME280;69979;53.682;-2.690;2024-01-10T04:40:54;103081.59;;;4.05;57.02
80620;BME280;69979;53.682;-2.690;2024-01-10T04:43:20;103082.08;;;4.45;56.33
80620;BME280;69979;53.682;-2.690;2024-01-10T04:45:46;103084.06;;;3.91;56.85
80620;BME280;69979;53.682;-2.690;2024-01-10T04:48:12;103082.90;;;4.36;56.88
80620;BME280;69979;53.682;-2.690;2024-01-10T04:50:37;103081.70;;;4.68;56.10
80620;BME280;69979;53.682;-2.690;2024-01-10T04:53:03;103073.87;;;5.17;55.23
80620;BME280;69979;53.682;-2.690;2024-01-10T04:55:29;103072.51;;;5.02;54.53
80620;BME280;69979;53.682;-2.690;2024-01-10T04:57:55;103068.80;;;5.86;53.57
80620;BME280;69979;53.682;-2.690;2024-01-10T05:00:21;103069.26;;;5.39;53.33
80620;BME280;69979;53.682;-2.690;2024-01-10T05:02:46;103064.11;;;5.37;53.09
80620;BME280;69979;53.682;-2.690;2024-01-10T05:05:12;103061.92;;;5.50;52.54
80620;BME280;69979;53.682;-2.690;2024-01-10T05:07:38;103064.53;;;5.99;52.27
80620;BME280;69979;53.682;-2.690;2024-01-10T05:10:05;103067.58;;;5.66;52.79
80620;BME280;69979;53.682;-2.690;2024-01-10T05:12:29;103067.24;;;5.51;52.69
80620;BME280;69979;53.682;-2.690;2024-01-10T05:14:55;103063.04;;;5.49;52.74
80620;BME280;69979;53.682;-2.690;2024-01-10T05:17:21;103060.99;;;5.23;53.55
80620;BME280;69979;53.682;-2.690;2024-01-10T05:19:47;103059.38;;;5.74;53.07
80620;BME280;69979;53.682;-2.690;2024-01-10T05:22:13;103061.16;;;6.37;52.36
80620;BME280;69979;53.682;-2.690;2024-01-10T05:24:38;103060.14;;;5.89;52.17
80620;BME280;69979;53.682;-2.690;2024-01-10T05:27:04;103059.57;;;6.60;51.24
80620;BME280;69979;53.682;-2.690;2024-01-10T05:29:30;103063.16;;;6.41;51.01
80620;BME280;69979;53.682;-2.690;2024-01-10T05:31:55;103061.81;;;6.40;51.03
80620;BME280;69979;53.682;-2.690;2024-01-10T05:34:21;103061.02;;;6.40;50.65
80620;BME280;69979;53.682;-2.690;2024-01-10T05:36:47;103062.42;;;6.87;50.30
80620;BME280;69979;53.682;-2.690;2024-01-10T05:39:13;103059.71;;;7.27;49.96
80620;BME280;69979;53.682;-2.690;2024-01-10T05:41:38;103061.18;;;7.08;49.82
80620;BME280;69979;53.682;-2.690;2024-01-10T05:44:04;103058.61;;;7.14;49.61
80620;BME280;69979;53.682;-2.690;2024-01-10T05:46:30;103051.96;;;7.09;49.46
80620;BME280;69979;53.682;-2.690;2024-01-10T05:48:56;103048.98;;;7.37;49.31
80620;BME280;69979;53.682;-2.690;2024-01-10T05:51:21;103048.74;;;7.21;49.16
80620;BME280;69979;53.682;-2.690;2024-01-10T05:53:47;103046.32;;;7.33;49.10
80620;BME280;69979;53.682;-2.690;2024-01-10T05:56:13;103046.58;;;7.56;48.94
80620;BME280;69979;53.682;-2.690;2024-01-10T05:58:38;103051.05;;;7.47;48.35
80620;BME280;69979;53.682;-2.690;2024-01-10T06:01:04;103053.84;;;7.64;48.39
80620;BME280;69979;53.682;-2.690;2024-01-10T06:03:30;103052.53;;;7.53;48.24
80620;BME280;69979;53.682;-2.690;2024-01-10T06:05:56;103054.80;;;7.89;48.03
80620;BME280;69979;53.682;-2.690;2024-01-10T06:08:21;103056.15;;;7.19;47.83
80620;BME280;69979;53.682;-2.690;2024-01-10T06:10:47;103060.70;;;7.95;47.66
80620;BME280;69979;53.682;-2.690;2024-01-10T06:13:13;103059.22;;;7.83;47.41
80620;BME280;69979;53.682;-2.690;2024-01-10T06:15:38;103057.98;;;8.04;47.35
80620;BME280;69979;53.682;-2.690;2024-01-10T06:18:04;103054.09;;;8.02;46.95
80620;BME280;69979;53.682;-2.690;2024-01-10T06:20:30;103057.97;;;8.14;46.76
80620;BME280;69979;53.682;-2.690;2024-01-10T06:22:55;103057.23;;;8.37;46.73
80620;BME280;69979;53.682;-2.690;2024-01-10T06:25:21;103053.50;;;8.11;46.55
80620;BME280;69979;53.682;-2.690;2024-01-10T06:27:47;103053.35;;;8.28;46.45
80620;BME280;69979;53.682;-2.690;2024-01-10T06:30:13;103052.88;;;8.15;46.34
80620;BME280;69979;53.682;-2.690;2024-01-10T06:32:38;103054.42;;;8.30;45.86
80620;BME280;69979;53.682;-2.690;2024-01-10T06:35:05;103053.24;;;8.18;46.03
80620;BME280;69979;53.682;-2.690;2024-01-10T06:37:30;103050.21;;;8.65;45.79
80620;BME280;69979;53.682;-2.690;2024-01-10T06:39:55;103048.84;;;8.01;46.08
80620;BME280;69979;53.682;-2.690;2024-01-10T06:42:21;103050.01;;;8.07;46.29
80620;BME280;69979;53.682;-2.690;2024-01-10T06:44:47;103051.39;;;8.03;46.94
80620;BME280;69979;53.682;-2.690;2024-01-10T06:47:12;103050.96;;;8.04;47.41
80620;BME280;69979;53.682;-2.690;2024-01-10T06:49:38;103055.49;;;7.73;47.70
80620;BME280;69979;53.682;-2.690;2024-01-10T06:52:04;103055.05;;;7.25;48.01
80620;BME280;69979;53.682;-2.690;2024-01-10T06:54:29;103056.32;;;7.39;49.30
80620;BME280;69979;53.682;-2.690;2024-01-10T06:56:55;103054.43;;;7.38;49.79
80620;BME280;69979;53.682;-2.690;2024-01-10T06:59:20;103052.78;;;6.95;49.74
80620;BME280;69979;53.682;-2.690;2024-01-10T07:01:51;103056.19;;;6.69;51.41
80620;BME280;69979;53.682;-2.690;2024-01-10T07:04:12;103056.83;;;6.36;52.13
80620;BME280;69979;53.682;-2.690;2024-01-10T07:06:38;103051.62;;;6.27;53.63
80620;BME280;69979;53.682;-2.690;2024-01-10T07:09:04;103051.03;;;6.17;54.24
80620;BME280;69979;53.682;-2.690;2024-01-10T07:11:29;103049.18;;;6.09;53.64
80620;BME280;69979;53.682;-2.690;2024-01-10T07:13:55;103050.10;;;6.28;54.21
80620;BME280;69979;53.682;-2.690;2024-01-10T07:16:22;103048.79;;;6.16;54.07
80620;BME280;69979;53.682;-2.690;2024-01-10T07:18:47;103052.17;;;6.27;53.24
80620;BME280;69979;53.682;-2.690;2024-01-10T07:21:13;103053.27;;;5.92;54.55
80620;BME280;69979;53.682;-2.690;2024-01-10T07:23:38;103050.79;;;5.05;55.76
80620;BME280;69979;53.682;-2.690;2024-01-10T07:26:04;103053.05;;;5.85;55.30
80620;BME280;69979;53.682;-2.690;2024-01-10T07:28:30;103054.53;;;5.81;54.99
80620;BME280;69979;53.682;-2.690;2024-01-10T07:30:56;103057.83;;;5.74;55.15
80620;BME280;69979;53.682;-2.690;2024-01-10T07:33:21;103060.28;;;6.02;54.43
80620;BME280;69979;53.682;-2.690;2024-01-10T07:35:47;103061.18;;;6.62;53.58
80620;BME280;69979;53.682;-2.690;2024-01-10T07:38:13;103058.41;;;6.19;54.01
80620;BME280;69979;53.682;-2.690;2024-01-10T07:40:38;103061.26;;;6.39;54.09
80620;BME280;69979;53.682;-2.690;2024-01-10T07:43:04;103061.28;;;5.38;55.29
80620;BME280;69979;53.682;-2.690;2024-01-10T07:45:30;103063.57;;;6.44;54.51
80620;BME280;69979;53.682;-2.690;2024-01-10T07:47:56;103068.41;;;6.63;54.00
80620;BME280;69979;53.682;-2.690;2024-01-10T07:50:22;103067.99;;;5.99;54.21
80620;BME280;69979;53.682;-2.690;2024-01-10T07:52:47;103069.11;;;6.53;54.11
80620;BME280;69979;53.682;-2.690;2024-01-10T07:55:13;103071.64;;;6.16;53.55
80620;BME280;69979;53.682;-2.690;2024-01-10T07:57:39;103075.35;;;6.65;53.35
80620;BME280;69979;53.682;-2.690;2024-01-10T08:00:05;103072.47;;;6.66;52.78
80620;BME280;69979;53.682;-2.690;2024-01-10T08:02:30;103073.01;;;6.54;53.09
80620;BME280;69979;53.682;-2.690;2024-01-10T08:04:56;103073.13;;;6.24;53.52
80620;BME280;69979;53.682;-2.690;2024-01-10T08:07:21;103077.37;;;6.87;52.91
80620;BME280;69979;53.682;-2.690;2024-01-10T08:09:47;103080.62;;;6.14;53.14
80620;BME280;69979;53.682;-2.690;2024-01-10T08:12:13;103083.63;;;6.70;52.80
80620;BME280;69979;53.682;-2.690;2024-01-10T08:14:40;103078.69;;;7.14;52.55
80620;BME280;69979;53.682;-2.690;2024-01-10T08:17:04;103079.26;;;6.32;52.68
80620;BME280;69979;53.682;-2.690;2024-01-10T08:19:30;103080.00;;;6.46;53.30
80620;BME280;69979;53.682;-2.690;2024-01-10T08:21:56;103080.10;;;6.71;52.84
80620;BME280;69979;53.682;-2.690;2024-01-10T08:24:22;103081.52;;;6.68;53.47
80620;BME280;69979;53.682;-2.690;2024-01-10T08:26:47;103085.20;;;6.71;52.90
80620;BME280;69979;53.682;-2.690;2024-01-10T08:29:13;103089.48;;;6.56;52.94
80620;BME280;69979;53.682;-2.690;2024-01-10T08:31:38;103094.02;;;6.51;53.29
80620;BME280;69979;53.682;-2.690;2024-01-10T08:34:04;103090.19;;;6.00;55.10
80620;BME280;69979;53.682;-2.690;2024-01-10T08:36:30;103090.71;;;5.06;56.07
80620;BME280;69979;53.682;-2.690;2024-01-10T08:38:56;103092.07;;;5.69;55.95
80620;BME280;69979;53.682;-2.690;2024-01-10T08:41:21;103094.46;;;5.25;56.68
80620;BME280;69979;53.682;-2.690;2024-01-10T08:43:47;103094.15;;;5.92;55.91
80620;BME280;69979;53.682;-2.690;2024-01-10T08:46:13;103095.80;;;5.65;56.12
80620;BME280;69979;53.682;-2.690;2024-01-10T08:48:39;103096.55;;;5.44;56.01
80620;BME280;69979;53.682;-2.690;2024-01-10T08:51:05;103096.69;;;6.02;55.36
80620;BME280;69979;53.682;-2.690;2024-01-10T08:53:30;103097.80;;;5.97;55.01
80620;BME280;69979;53.682;-2.690;2024-01-10T08:55:56;103096.28;;;5.71;54.88
80620;BME280;69979;53.682;-2.690;2024-01-10T08:58:21;103101.91;;;5.86;55.08
80620;BME280;69979;53.682;-2.690;2024-01-10T09:00:47;103100.86;;;5.89;55.07
80620;BME280;69979;53.682;-2.690;2024-01-10T09:03:13;103104.78;;;6.23;54.68
80620;BME280;69979;53.682;-2.690;2024-01-10T09:05:39;103108.48;;;6.42;53.81
80620;BME280;69979;53.682;-2.690;2024-01-10T09:08:05;103109.97;;;6.42;53.61
80620;BME280;69979;53.682;-2.690;2024-01-10T09:10:30;103109.50;;;7.12;52.54
80620;BME280;69979;53.682;-2.690;2024-01-10T09:12:58;103112.07;;;7.16;51.92
80620;BME280;69979;53.682;-2.690;2024-01-10T09:15:22;103115.37;;;7.08;51.89
80620;BME280;69979;53.682;-2.690;2024-01-10T09:17:47;103116.33;;;7.13;51.81
80620;BME280;69979;53.682;-2.690;2024-01-10T09:20:15;103115.17;;;6.42;53.06
80620;BME280;69979;53.682;-2.690;2024-01-10T09:22:39;103120.69;;;6.75;53.36
80620;BME280;69979;53.682;-2.690;2024-01-10T09:25:05;103122.29;;;6.58;53.26
80620;BME280;69979;53.682;-2.690;2024-01-10T09:27:30;103115.63;;;5.55;55.70
80620;BME280;69979;53.682;-2.690;2024-01-10T09:29:56;103114.45;;;6.04;55.20
80620;BME280;69979;53.682;-2.690;2024-01-10T09:32:22;103114.08;;;6.70;54.51
80620;BME280;69979;53.682;-2.690;2024-01-10T09:34:47;103113.16;;;6.84;53.59
80620;BME280;69979;53.682;-2.690;2024-01-10T09:37:13;103112.23;;;6.75;53.61
80620;BME280;69979;53.682;-2.690;2024-01-10T09:39:39;103110.40;;;7.14;53.04
80620;BME280;69979;53.682;-2.690;2024-01-10T09:42:05;103102.90;;;7.54;52.57
80620;BME280;69979;53.682;-2.690;2024-01-10T09:44:30;103105.22;;;7.38;51.85
80620;BME280;69979;53.682;-2.690;2024-01-10T09:46:56;103108.93;;;6.96;53.43
80620;BME280;69979;53.682;-2.690;2024-01-10T09:49:22;103103.22;;;7.39;52.46
80620;BME280;69979;53.682;-2.690;2024-01-10T09:51:49;103106.00;;;7.50;51.71
80620;BME280;69979;53.682;-2.690;2024-01-10T09:54:15;103105.10;;;7.45;52.17
80620;BME280;69979;53.682;-2.690;2024-01-10T09:56:39;103096.81;;;7.51;51.79
80620;BME280;69979;53.682;-2.690;2024-01-10T09:59:06;103100.36;;;6.83;52.14
80620;BME280;69979;53.682;-2.690;2024-01-10T10:01:31;103099.04;;;7.52;52.55
80620;BME280;69979;53.682;-2.690;2024-01-10T10:03:56;103104.44;;;7.21;52.75
80620;BME280;69979;53.682;-2.690;2024-01-10T10:06:21;103099.41;;;7.45;52.54
80620;BME280;69979;53.682;-2.690;2024-01-10T10:08:47;103095.70;;;7.10;52.19
80620;BME280;69979;53.682;-2.690;2024-01-10T10:11:13;103093.27;;;7.64;52.01
80620;BME280;69979;53.682;-2.690;2024-01-10T10:13:39;103088.26;;;7.69;51.58
80620;BME280;69979;53.682;-2.690;2024-01-10T10:16:05;103090.15;;;7.61;51.05
80620;BME280;69979;53.682;-2.690;2024-01-10T10:18:31;103086.81;;;7.69;50.99
80620;BME280;69979;53.682;-2.690;2024-01-10T10:21:06;103092.23;;;6.93;52.68
80620;BME280;69979;53.682;-2.690;2024-01-10T10:23:21;103093.19;;;7.31;52.43
80620;BME280;69979;53.682;-2.690;2024-01-10T10:25:48;103093.96;;;6.73;53.09
80620;BME280;69979;53.682;-2.690;2024-01-10T10:28:13;103094.56;;;6.76;53.00
80620;BME280;69979;53.682;-2.690;2024-01-10T10:30:39;103094.73;;;6.97;53.46
80620;BME280;69979;53.682;-2.690;2024-01-10T10:33:05;103092.82;;;7.41;52.24
80620;BME280;69979;53.682;-2.690;2024-01-10T10:35:32;103089.43;;;7.26;52.01
80620;BME280;69979;53.682;-2.690;2024-01-10T10:37:56;103088.70;;;7.55;51.51
80620;BME280;69979;53.682;-2.690;2024-01-10T10:40:22;103086.28;;;8.09;51.31
80620;BME280;69979;53.682;-2.690;2024-01-10T10:42:48;103089.45;;;7.72;51.29
80620;BME280;69979;53.682;-2.690;2024-01-10T10:45:15;103093.45;;;7.99;50.80
80620;BME280;69979;53.682;-2.690;2024-01-10T10:47:41;103090.71;;;8.06;50.81
80620;BME280;69979;53.682;-2.690;2024-01-10T10:50:06;103086.39;;;7.44;51.42
80620;BME280;69979;53.682;-2.690;2024-01-10T10:52:30;103086.48;;;7.52;51.04
80620;BME280;69979;53.682;-2.690;2024-01-10T10:54:56;103082.71;;;7.77;50.68
80620;BME280;69979;53.682;-2.690;2024-01-10T10:57:22;103082.07;;;7.75;50.94
80620;BME280;69979;53.682;-2.690;2024-01-10T10:59:49;103081.09;;;7.79;50.64
80620;BME280;69979;53.682;-2.690;2024-01-10T11:02:20;103078.52;;;7.35;51.12
80620;BME280;69979;53.682;-2.690;2024-01-10T11:04:40;103076.02;;;7.70;50.62
80620;BME280;69979;53.682;-2.690;2024-01-10T11:07:05;103075.52;;;7.67;50.84
80620;BME280;69979;53.682;-2.690;2024-01-10T11:09:31;103075.30;;;7.77;50.88
80620;BME280;69979;53.682;-2.690;2024-01-10T11:12:09;103070.16;;;7.02;51.19
80620;BME280;69979;53.682;-2.690;2024-01-10T11:14:31;103063.76;;;7.38;50.94
80620;BME280;69979;53.682;-2.690;2024-01-10T11:17:06;103068.10;;;7.06;52.00
80620;BME280;69979;53.682;-2.690;2024-01-10T11:19:25;103067.36;;;6.77;52.49
80620;BME280;69979;53.682;-2.690;2024-01-10T11:21:47;103067.02;;;6.09;53.27
80620;BME280;69979;53.682;-2.690;2024-01-10T11:24:06;103070.63;;;6.86;51.98
80620;BME280;69979;53.682;-2.690;2024-01-10T11:26:32;103061.98;;;7.25;51.15
80620;BME280;69979;53.682;-2.690;2024-01-10T11:28:57;103063.69;;;7.13;51.72
80620;BME280;69979;53.682;-2.690;2024-01-10T11:31:28;103059.01;;;7.38;51.54
80620;BME280;69979;53.682;-2.690;2024-01-10T11:33:48;103050.97;;;7.08;52.05
80620;BME280;69979;53.682;-2.690;2024-01-10T11:36:15;103055.10;;;6.69;53.27
80620;BME280;69979;53.682;-2.690;2024-01-10T11:38:42;103055.98;;;6.70;52.88
80620;BME280;69979;53.682;-2.690;2024-01-10T11:41:05;103052.66;;;6.56;54.35
80620;BME280;69979;53.682;-2.690;2024-01-10T11:43:31;103052.79;;;6.55;53.66
80620;BME280;69979;53.682;-2.690;2024-01-10T11:45:57;103053.73;;;6.10;54.39
80620;BME280;69979;53.682;-2.690;2024-01-10T11:48:27;103049.00;;;5.59;55.77
80620;BME280;69979;53.682;-2.690;2024-01-10T11:50:48;103045.70;;;5.53;56.23
80620;BME280;69979;53.682;-2.690;2024-01-10T11:55:49;103041.53;;;5.80;55.90
80620;BME280;69979;53.682;-2.690;2024-01-10T11:58:09;103030.21;;;5.58;57.10
80620;BME280;69979;53.682;-2.690;2024-01-10T12:00:31;103027.57;;;6.47;54.98
80620;BME280;69979;53.682;-2.690;2024-01-10T12:02:57;103024.13;;;5.88;56.16
80620;BME280;69979;53.682;-2.690;2024-01-10T12:05:22;103020.12;;;5.35;56.20
80620;BME280;69979;53.682;-2.690;2024-01-10T12:07:51;103014.86;;;4.71;59.04
80620;BME280;69979;53.682;-2.690;2024-01-10T12:10:14;103012.24;;;4.58;59.41
80620;BME280;69979;53.682;-2.690;2024-01-10T12:12:39;103015.46;;;4.98;58.38
80620;BME280;69979;53.682;-2.690;2024-01-10T12:15:06;103017.88;;;4.67;59.84
80620;BME280;69979;53.682;-2.690;2024-01-10T12:17:31;103017.31;;;5.85;57.41
80620;BME280;69979;53.682;-2.690;2024-01-10T12:19:57;103013.58;;;5.41;56.49
80620;BME280;69979;53.682;-2.690;2024-01-10T12:22:22;103015.27;;;5.35;56.06
80620;BME280;69979;53.682;-2.690;2024-01-10T12:24:48;103016.45;;;5.20;56.86
80620;BME280;69979;53.682;-2.690;2024-01-10T12:27:16;103021.09;;;6.00;55.32
80620;BME280;69979;53.682;-2.690;2024-01-10T12:29:42;103016.36;;;5.83;53.43
80620;BME280;69979;53.682;-2.690;2024-01-10T12:32:08;103015.75;;;6.33;54.39
80620;BME280;69979;53.682;-2.690;2024-01-10T12:34:33;103011.51;;;5.77;55.10
80620;BME280;69979;53.682;-2.690;2024-01-10T12:36:59;103006.32;;;5.18;57.12
80620;BME280;69979;53.682;-2.690;2024-01-10T12:39:24;103006.23;;;6.21;54.99
80620;BME280;69979;53.682;-2.690;2024-01-10T12:41:51;103002.95;;;6.85;53.02
80620;BME280;69979;53.682;-2.690;2024-01-10T12:44:15;102997.48;;;7.06;52.24